JZA651 KPDX-CYVR
Flight info
| Callsign | JZA651 |
|---|---|
| Flight time | 0h 44m |
| Altitude | 30000 |
| Route | BTG J1 SEA DCT PAE GRIZZ9 |
| Aircraft | B462/M-SDFGIRWY/LB1 |
Departure
| Time | 2026-05-07 17:49 |
|---|---|
| Airport | Portland International Airport (KPDX) |
Arrival
| Time | 2026-05-07 18:33 |
|---|---|
| Airport | Vancouver International Airport (CYVR) |
| Time | Latitude | Longitude | Altitude | Speed | Heading |
|---|---|---|---|---|---|
| 2026-05-07 17:00 | 45.58859 | -122.58720 | 23 ft | 0 kts | 231° |
| 2026-05-07 17:40 | 45.58865 | -122.58709 | 23 ft | 2 kts | 232° |
| 2026-05-07 17:40 | 45.58875 | -122.58688 | 23 ft | 3 kts | 235° |
| 2026-05-07 17:40 | 45.58892 | -122.58657 | 23 ft | 4 kts | 229° |
| 2026-05-07 17:40 | 45.58912 | -122.58627 | 23 ft | 4 kts | 224° |
| 2026-05-07 17:41 | 45.58924 | -122.58611 | 23 ft | 0 kts | 216° |
| 2026-05-07 17:44 | 45.58913 | -122.58613 | 23 ft | 2 kts | 173° |
| 2026-05-07 17:44 | 45.58893 | -122.58588 | 23 ft | 5 kts | 118° |
| 2026-05-07 17:44 | 45.58872 | -122.58523 | 23 ft | 8 kts | 107° |
| 2026-05-07 17:44 | 45.58834 | -122.58438 | 23 ft | 11 kts | 121° |
| 2026-05-07 17:45 | 45.58790 | -122.58322 | 23 ft | 14 kts | 106° |
| 2026-05-07 17:45 | 45.58826 | -122.58204 | 23 ft | 12 kts | 97° |
| 2026-05-07 17:45 | 45.58781 | -122.58089 | 23 ft | 13 kts | 120° |
| 2026-05-07 17:45 | 45.58730 | -122.57968 | 23 ft | 14 kts | 119° |
| 2026-05-07 17:46 | 45.58680 | -122.57838 | 23 ft | 15 kts | 118° |
| 2026-05-07 17:46 | 45.58627 | -122.57700 | 23 ft | 16 kts | 111° |
| 2026-05-07 17:46 | 45.58626 | -122.57648 | 23 ft | 0 kts | 60° |
| 2026-05-07 17:47 | 45.58636 | -122.57630 | 23 ft | 4 kts | 41° |
| 2026-05-07 17:47 | 45.58672 | -122.57604 | 23 ft | 7 kts | 25° |
| 2026-05-07 17:47 | 45.58726 | -122.57628 | 23 ft | 10 kts | 309° |
| 2026-05-07 17:48 | 45.58756 | -122.57703 | 23 ft | 0 kts | 297° |
| 2026-05-07 17:48 | 45.58758 | -122.57710 | 23 ft | 8 kts | 298° |
| 2026-05-07 17:48 | 45.58914 | -122.58141 | 23 ft | 84 kts | 301° |
| 2026-05-07 17:48 | 45.59308 | -122.59137 | 44 ft | 140 kts | 300° |
| 2026-05-07 17:49 | 45.59946 | -122.60193 | 489 ft | 149 kts | 333° |
| 2026-05-07 17:49 | 45.61043 | -122.60303 | 946 ft | 164 kts | 10° |
| 2026-05-07 17:49 | 45.62209 | -122.60191 | 1460 ft | 177 kts | 357° |
| 2026-05-07 17:49 | 45.63500 | -122.60255 | 1926 ft | 193 kts | 359° |
| 2026-05-07 17:50 | 45.64909 | -122.60211 | 2348 ft | 215 kts | 2° |
| 2026-05-07 17:50 | 45.66510 | -122.60093 | 2799 ft | 241 kts | 3° |
| 2026-05-07 17:50 | 45.68257 | -122.59921 | 3288 ft | 261 kts | 4° |
| 2026-05-07 17:50 | 45.70066 | -122.59719 | 4319 ft | 260 kts | 4° |
| 2026-05-07 17:51 | 45.71847 | -122.59511 | 5302 ft | 262 kts | 3° |
| 2026-05-07 17:51 | 45.73672 | -122.59286 | 6279 ft | 263 kts | 3° |
| 2026-05-07 17:51 | 45.75482 | -122.59122 | 7122 ft | 266 kts | 357° |
| 2026-05-07 17:51 | 45.77332 | -122.58932 | 7919 ft | 272 kts | 6° |
| 2026-05-07 17:52 | 45.79209 | -122.58510 | 8713 ft | 275 kts | 5° |
| 2026-05-07 17:52 | 45.81110 | -122.58162 | 9439 ft | 277 kts | 4° |
| 2026-05-07 17:52 | 45.83046 | -122.57830 | 9939 ft | 290 kts | 4° |
| 2026-05-07 17:52 | 45.85109 | -122.57488 | 10254 ft | 308 kts | 4° |
| 2026-05-07 17:53 | 45.87304 | -122.57127 | 10547 ft | 322 kts | 4° |
| 2026-05-07 17:53 | 45.89574 | -122.56755 | 10901 ft | 332 kts | 4° |
| 2026-05-07 17:53 | 45.91897 | -122.56375 | 11368 ft | 340 kts | 4° |
| 2026-05-07 17:53 | 45.94268 | -122.55988 | 11771 ft | 347 kts | 4° |
| 2026-05-07 17:54 | 45.96698 | -122.55592 | 12241 ft | 352 kts | 4° |
| 2026-05-07 17:54 | 45.99147 | -122.55193 | 12896 ft | 357 kts | 4° |
| 2026-05-07 17:54 | 46.01608 | -122.54792 | 13653 ft | 359 kts | 4° |
| 2026-05-07 17:54 | 46.04091 | -122.54387 | 14302 ft | 363 kts | 4° |
| 2026-05-07 17:55 | 46.06596 | -122.53976 | 15034 ft | 365 kts | 4° |
| 2026-05-07 17:55 | 46.09162 | -122.53557 | 15656 ft | 369 kts | 4° |
| 2026-05-07 17:55 | 46.11634 | -122.53148 | 15941 ft | 341 kts | 3° |
| 2026-05-07 17:55 | 46.13813 | -122.52786 | 15956 ft | 312 kts | 3° |
| 2026-05-07 17:56 | 46.15847 | -122.52445 | 15970 ft | 286 kts | 3° |
| 2026-05-07 17:56 | 46.17885 | -122.52119 | 16434 ft | 297 kts | 3° |
| 2026-05-07 17:56 | 46.19883 | -122.51791 | 17357 ft | 290 kts | 3° |
| 2026-05-07 17:56 | 46.21903 | -122.51462 | 17923 ft | 296 kts | 3° |
| 2026-05-07 17:57 | 46.23963 | -122.51124 | 18579 ft | 299 kts | 3° |
| 2026-05-07 17:57 | 46.26028 | -122.50784 | 19189 ft | 301 kts | 3° |
| 2026-05-07 17:57 | 46.28106 | -122.50442 | 19825 ft | 302 kts | 3° |
| 2026-05-07 17:57 | 46.30194 | -122.50098 | 20391 ft | 305 kts | 3° |
| 2026-05-07 17:58 | 46.32281 | -122.49753 | 20961 ft | 307 kts | 3° |
| 2026-05-07 17:58 | 46.34410 | -122.49400 | 21538 ft | 308 kts | 3° |
| 2026-05-07 17:58 | 46.36538 | -122.49049 | 22012 ft | 312 kts | 3° |
| 2026-05-07 17:58 | 46.38701 | -122.48691 | 22541 ft | 314 kts | 3° |
| 2026-05-07 17:59 | 46.40866 | -122.48332 | 23064 ft | 316 kts | 3° |
| 2026-05-07 17:59 | 46.43060 | -122.47968 | 23538 ft | 319 kts | 2° |
| 2026-05-07 17:59 | 46.45273 | -122.47600 | 24013 ft | 322 kts | 3° |
| 2026-05-07 17:59 | 46.47507 | -122.47229 | 24480 ft | 325 kts | 2° |
| 2026-05-07 18:00 | 46.49754 | -122.46854 | 24981 ft | 327 kts | 2° |
| 2026-05-07 18:00 | 46.52016 | -122.46478 | 25473 ft | 329 kts | 2° |
| 2026-05-07 18:00 | 46.54287 | -122.46100 | 25927 ft | 331 kts | 2° |
| 2026-05-07 18:00 | 46.56574 | -122.45718 | 26384 ft | 333 kts | 2° |
| 2026-05-07 18:01 | 46.58896 | -122.45330 | 26834 ft | 335 kts | 2° |
| 2026-05-07 18:01 | 46.61203 | -122.44945 | 27258 ft | 338 kts | 2° |
| 2026-05-07 18:01 | 46.63571 | -122.44550 | 27628 ft | 341 kts | 2° |
| 2026-05-07 18:01 | 46.65935 | -122.44153 | 28078 ft | 342 kts | 1° |
| 2026-05-07 18:02 | 46.70703 | -122.43354 | 28872 ft | 347 kts | 1° |
| 2026-05-07 18:02 | 46.73088 | -122.42954 | 29265 ft | 349 kts | 1° |
| 2026-05-07 18:02 | 46.75495 | -122.42548 | 29684 ft | 350 kts | 1° |
| 2026-05-07 18:03 | 46.77926 | -122.42141 | 29997 ft | 353 kts | 1° |
| 2026-05-07 18:03 | 46.80384 | -122.41730 | 30121 ft | 362 kts | 1° |
| 2026-05-07 18:03 | 46.82948 | -122.41301 | 30142 ft | 373 kts | 1° |
| 2026-05-07 18:03 | 46.85549 | -122.40864 | 30145 ft | 384 kts | 1° |
| 2026-05-07 18:04 | 46.88225 | -122.40412 | 30152 ft | 394 kts | 1° |
| 2026-05-07 18:04 | 46.93737 | -122.39473 | 30154 ft | 396 kts | 1° |
| 2026-05-07 18:05 | 46.99218 | -122.38543 | 30159 ft | 398 kts | 1° |
| 2026-05-07 18:05 | 47.04667 | -122.37615 | 30157 ft | 389 kts | 1° |
| 2026-05-07 18:06 | 47.09985 | -122.36709 | 30156 ft | 381 kts | 1° |
| 2026-05-07 18:06 | 47.15209 | -122.35819 | 30164 ft | 376 kts | 1° |
| 2026-05-07 18:07 | 47.20412 | -122.34931 | 30162 ft | 373 kts | 2° |
| 2026-05-07 18:07 | 47.25566 | -122.34050 | 30154 ft | 370 kts | 2° |
| 2026-05-07 18:08 | 47.30633 | -122.33181 | 30153 ft | 367 kts | 2° |
| 2026-05-07 18:08 | 47.35712 | -122.32309 | 30151 ft | 364 kts | 2° |
| 2026-05-07 18:09 | 47.40698 | -122.31451 | 30150 ft | 361 kts | 2° |
| 2026-05-07 18:09 | 47.45674 | -122.30743 | 30152 ft | 356 kts | 357° |
| 2026-05-07 18:10 | 47.50636 | -122.30475 | 30151 ft | 355 kts | 358° |
| 2026-05-07 18:10 | 47.55554 | -122.30168 | 30152 ft | 353 kts | 357° |
| 2026-05-07 18:11 | 47.60438 | -122.29854 | 30152 ft | 352 kts | 357° |
| 2026-05-07 18:11 | 47.65322 | -122.29536 | 30152 ft | 350 kts | 358° |
| 2026-05-07 18:12 | 47.70186 | -122.29218 | 30155 ft | 349 kts | 357° |
| 2026-05-07 18:12 | 47.75005 | -122.28901 | 30153 ft | 348 kts | 358° |
| 2026-05-07 18:13 | 47.79845 | -122.28582 | 30157 ft | 347 kts | 357° |
| 2026-05-07 18:13 | 47.84641 | -122.28265 | 30158 ft | 346 kts | 357° |
| 2026-05-07 18:14 | 47.89473 | -122.27946 | 30156 ft | 345 kts | 357° |
| 2026-05-07 18:14 | 47.94207 | -122.28285 | 30164 ft | 337 kts | 343° |
| 2026-05-07 18:15 | 47.98865 | -122.29725 | 30161 ft | 348 kts | 344° |
| 2026-05-07 18:15 | 48.03698 | -122.31148 | 30158 ft | 360 kts | 345° |
| 2026-05-07 18:16 | 48.08667 | -122.32597 | 30162 ft | 370 kts | 345° |
| 2026-05-07 18:16 | 48.13810 | -122.34092 | 30163 ft | 380 kts | 345° |
| 2026-05-07 18:17 | 48.19055 | -122.35618 | 30165 ft | 388 kts | 345° |
| 2026-05-07 18:17 | 48.24358 | -122.37161 | 30160 ft | 390 kts | 345° |
| 2026-05-07 18:18 | 48.29678 | -122.38712 | 30159 ft | 385 kts | 345° |
| 2026-05-07 18:18 | 48.34840 | -122.40214 | 30158 ft | 372 kts | 345° |
| 2026-05-07 18:19 | 48.39852 | -122.41681 | 30156 ft | 361 kts | 345° |
| 2026-05-07 18:19 | 48.44696 | -122.43102 | 29432 ft | 368 kts | 345° |
| 2026-05-07 18:19 | 48.47257 | -122.43864 | 24364 ft | 449 kts | 346° |
| 2026-05-07 18:20 | 48.50030 | -122.44693 | 20236 ft | 437 kts | 348° |
| 2026-05-07 18:20 | 48.52786 | -122.45506 | 16734 ft | 420 kts | 348° |
| 2026-05-07 18:20 | 48.55466 | -122.46109 | 13388 ft | 405 kts | 350° |
| 2026-05-07 18:20 | 48.57958 | -122.47391 | 11399 ft | 356 kts | 338° |
| 2026-05-07 18:21 | 48.59999 | -122.48621 | 11535 ft | 282 kts | 340° |
| 2026-05-07 18:21 | 48.61727 | -122.49599 | 11181 ft | 247 kts | 340° |
| 2026-05-07 18:21 | 48.63274 | -122.50474 | 11160 ft | 246 kts | 340° |
| 2026-05-07 18:21 | 48.65029 | -122.51459 | 11163 ft | 288 kts | 340° |
| 2026-05-07 18:22 | 48.67024 | -122.52576 | 11156 ft | 325 kts | 340° |
| 2026-05-07 18:22 | 48.68509 | -122.53406 | 11158 ft | 348 kts | 341° |
| 2026-05-07 18:22 | 48.71721 | -122.55201 | 11156 ft | 386 kts | 341° |
| 2026-05-07 18:22 | 48.74270 | -122.56625 | 11576 ft | 397 kts | 340° |
| 2026-05-07 18:23 | 48.76877 | -122.58083 | 12270 ft | 400 kts | 340° |
| 2026-05-07 18:23 | 48.79476 | -122.59537 | 12872 ft | 403 kts | 340° |
| 2026-05-07 18:23 | 48.82116 | -122.61015 | 13470 ft | 406 kts | 340° |
| 2026-05-07 18:23 | 48.84795 | -122.62515 | 14069 ft | 408 kts | 340° |
| 2026-05-07 18:24 | 48.87442 | -122.64000 | 14647 ft | 410 kts | 340° |
| 2026-05-07 18:24 | 48.90132 | -122.65512 | 15107 ft | 413 kts | 339° |
| 2026-05-07 18:24 | 48.92811 | -122.67017 | 15025 ft | 419 kts | 339° |
| 2026-05-07 18:24 | 48.95509 | -122.68535 | 14827 ft | 410 kts | 339° |
| 2026-05-07 18:25 | 48.98232 | -122.70069 | 14759 ft | 422 kts | 339° |
| 2026-05-07 18:25 | 49.00757 | -122.71491 | 15129 ft | 350 kts | 339° |
| 2026-05-07 18:25 | 49.02924 | -122.72714 | 13659 ft | 326 kts | 339° |
| 2026-05-07 18:25 | 49.04980 | -122.73876 | 12185 ft | 311 kts | 340° |
| 2026-05-07 18:26 | 49.06930 | -122.74980 | 10724 ft | 302 kts | 340° |
| 2026-05-07 18:26 | 49.08855 | -122.76070 | 9245 ft | 295 kts | 340° |
| 2026-05-07 18:26 | 49.10751 | -122.77143 | 7736 ft | 290 kts | 341° |
| 2026-05-07 18:26 | 49.12589 | -122.78186 | 6221 ft | 284 kts | 340° |
| 2026-05-07 18:27 | 49.14277 | -122.79544 | 4726 ft | 280 kts | 327° |
| 2026-05-07 18:27 | 49.15729 | -122.81401 | 3221 ft | 276 kts | 309° |
| 2026-05-07 18:27 | 49.16491 | -122.83981 | 1839 ft | 269 kts | 279° |
| 2026-05-07 18:27 | 49.16707 | -122.86567 | 1491 ft | 230 kts | 278° |
| 2026-05-07 18:28 | 49.16933 | -122.88786 | 1444 ft | 192 kts | 281° |
| 2026-05-07 18:28 | 49.17129 | -122.90595 | 1451 ft | 154 kts | 281° |
| 2026-05-07 18:28 | 49.17287 | -122.92042 | 1435 ft | 124 kts | 281° |
| 2026-05-07 18:28 | 49.17429 | -122.93300 | 1469 ft | 123 kts | 281° |
| 2026-05-07 18:29 | 49.17578 | -122.94584 | 1444 ft | 125 kts | 282° |
| 2026-05-07 18:29 | 49.17737 | -122.95927 | 1449 ft | 129 kts | 282° |
| 2026-05-07 18:29 | 49.17899 | -122.97309 | 1446 ft | 134 kts | 282° |
| 2026-05-07 18:29 | 49.18064 | -122.98729 | 1441 ft | 137 kts | 282° |
| 2026-05-07 18:30 | 49.18235 | -123.00195 | 1440 ft | 140 kts | 282° |
| 2026-05-07 18:30 | 49.18406 | -123.01670 | 1439 ft | 142 kts | 281° |
| 2026-05-07 18:30 | 49.18580 | -123.03172 | 1441 ft | 144 kts | 281° |
| 2026-05-07 18:30 | 49.18757 | -123.04702 | 1444 ft | 145 kts | 281° |
| 2026-05-07 18:31 | 49.18934 | -123.06248 | 1288 ft | 143 kts | 281° |
| 2026-05-07 18:31 | 49.19091 | -123.07649 | 1114 ft | 127 kts | 281° |
| 2026-05-07 18:31 | 49.19231 | -123.08884 | 954 ft | 110 kts | 281° |
| 2026-05-07 18:31 | 49.19357 | -123.09980 | 817 ft | 101 kts | 282° |
| 2026-05-07 18:32 | 49.19480 | -123.11045 | 692 ft | 103 kts | 281° |
| 2026-05-07 18:32 | 49.19616 | -123.12202 | 556 ft | 119 kts | 282° |
| 2026-05-07 18:32 | 49.19760 | -123.13438 | 388 ft | 115 kts | 281° |
| 2026-05-07 18:32 | 49.19892 | -123.14594 | 214 ft | 106 kts | 282° |
| 2026-05-07 18:33 | 49.20016 | -123.15675 | 76 ft | 101 kts | 282° |
| 2026-05-07 18:33 | 49.20143 | -123.16762 | 30 ft | 106 kts | 282° |
| 2026-05-07 18:33 | 49.20267 | -123.17797 | 19 ft | 86 kts | 279° |
| 2026-05-07 18:33 | 49.20316 | -123.18321 | 19 ft | 33 kts | 283° |
| 2026-05-07 18:34 | 49.20326 | -123.18607 | 18 ft | 13 kts | 200° |
| 2026-05-07 18:34 | 49.20246 | -123.18718 | 18 ft | 19 kts | 244° |
| 2026-05-07 18:34 | 49.20173 | -123.18859 | 18 ft | 16 kts | 139° |
| 2026-05-07 18:34 | 49.20140 | -123.18653 | 18 ft | 24 kts | 99° |
| 2026-05-07 18:35 | 49.20110 | -123.18345 | 17 ft | 33 kts | 100° |
| 2026-05-07 18:35 | 49.20058 | -123.17944 | 17 ft | 42 kts | 100° |
| 2026-05-07 18:35 | 49.20007 | -123.17494 | 15 ft | 42 kts | 98° |
| 2026-05-07 18:35 | 49.19970 | -123.17157 | 15 ft | 17 kts | 116° |
| 2026-05-07 18:36 | 49.19891 | -123.17179 | 15 ft | 14 kts | 225° |
| 2026-05-07 18:36 | 49.19791 | -123.17193 | 15 ft | 14 kts | 176° |
| 2026-05-07 18:36 | 49.19683 | -123.17194 | 15 ft | 15 kts | 195° |
| 2026-05-07 18:36 | 49.19647 | -123.17317 | 15 ft | 15 kts | 290° |
| 2026-05-07 18:37 | 49.19632 | -123.17477 | 15 ft | 16 kts | 249° |
| 2026-05-07 18:37 | 49.19653 | -123.17592 | 15 ft | 5 kts | 333° |
| 2026-05-07 18:37 | 49.19659 | -123.17597 | 15 ft | 0 kts | 333° |